Terminal Aerodrome Forecast
Issued by NWS

Home | Current Version | Previous Version | Text Only | Print | Product List | Glossary On
Versions: 1 2 3 4 5 6 7 8 9 10 11 12 13 14 15
000
FTUS46 KPDT 251700
TAFDLS
TAF
KDLS 251739Z 2518/2618 09005KT P6SM VCSH BKN025 OVC035
     FM252200 32010KT P6SM -SHRA BKN050 OVC070
     FM260500 33012KT P6SM VCSH BKN070 BKN150
     FM261400 30010KT P6SM BKN150=

USA.gov is the U.S. government's official web portal to all federal, state and local government web resources and services.